Nearby METAR Reports

 

KSJC - San Jose, California, USA
Distance from station: NE 9mi, 14km
Updated: Sun, 17-Jan-2021 5:53pm PST
Few Clouds
Few Clouds
 Wind from NNW
Wind: NNW 6 mph , 9 km/h
Temperature: 64°F , 18°C
Dew Point: 39°F , 4°C
Humidity: 40%
Barometer: 30.00 inHg , 1015.9 hPa
Clouds: Few Clouds
Visibility: 10 miles , 16 km
Cloud details: Few Clouds 6000 ft
Few Clouds 10000 ft
2021/01/18 01:53 KSJC 180153Z 33005KT 10SM FEW060 FEW100 18/04 A3000 RMK AO2 SLP159 T01830044
KPAO - Palo Alto, California, USA
Distance from station: NNW 14mi, 23km
Updated: Sun, 17-Jan-2021 5:47pm PST
Clear
Clear
 Wind from varies
Wind: varies 3 mph , 6 km/h
Temperature: 61°F , 16°C
Dew Point: 46°F , 8°C
Humidity: 59%
Barometer: 30.01 inHg , 1016.3 hPa
Clouds: Clear
Visibility: 10 miles , 16 km
2021/01/18 01:47 KPAO 180147Z VRB03KT 10SM SKC 16/08 A3001
 
KRHV - San Jose/Reid, California, USA
Distance from station: ENE 12mi, 19km
Updated: Sun, 17-Jan-2021 5:47pm PST
Clear
Clear
 Wind from NW
Wind: NW 6 mph , 9 km/h
Temperature: 68°F , 20°C
Dew Point: 39°F , 4°C
Humidity: 35%
Barometer: 30.01 inHg , 1016.3 hPa
Clouds: Clear
Visibility: 10 miles , 16 km
2021/01/18 01:47 KRHV 180147Z 31005KT 10SM SKC 20/04 A3001
KOAK - Oakland, California, USA
Distance from station: NNW 31mi, 50km
Updated: Sun, 17-Jan-2021 5:53pm PST
Partly cloudy
Partly cloudy
 Wind from calm
Wind: Calm
Temperature: 64°F , 18°C
Dew Point: 43°F , 6°C
Humidity: 46%
Barometer: 30.01 inHg , 1016.3 hPa
Clouds: Partly cloudy
Visibility: 10 miles , 16 km
Cloud details: Partly cloudy 25000 ft
2021/01/18 01:53 KOAK 180153Z 00000KT 10SM SCT250 18/06 A3001 RMK AO2 SLP163 T01830056
 
KSQL - San Carlos Airpo, California, USA
Distance from station: NW 21mi, 34km
Updated: Sun, 17-Jan-2021 4:47pm PST
Clear
Clear
 Wind from calm
Wind: Calm
Temperature: 73°F , 23°C
Dew Point: 41°F , 5°C
Humidity: 31%
Barometer: 30.02 inHg , 1016.6 hPa
Clouds: Clear
Visibility: 10 miles , 16 km
2021/01/18 00:47 KSQL 180047Z 00000KT 10SM SKC 23/05 A3002
KSFO - San Francisco, California, USA
Distance from station: NW 30mi, 49km
Updated: Sun, 17-Jan-2021 4:56pm PST
Partly cloudy
Partly cloudy
 Wind from WNW
Wind: WNW 9 mph , 15 km/h
Temperature: 68°F , 20°C
Dew Point: 45°F , 7°C
Humidity: 43%
Barometer: 30.01 inHg , 1016.3 hPa
Clouds: Partly cloudy
Visibility: 10 miles , 16 km
Cloud details: Partly cloudy 20000 ft
2021/01/18 00:56 KSFO 180056Z 30008KT 10SM SCT200 20/07 A3001 RMK AO2 SLP161 T02000072
 
KE16 - San Martin, California, USA
Distance from station: ESE 27mi, 43km
Updated: Sun, 17-Jan-2021 5:35pm PST
Clear
Clear
 Wind from NW
Wind: NW 3 mph , 6 km/h
Temperature: 68°F , 20°C
Dew Point: 36°F , 2°C
Humidity: 30%
Barometer: 30.01 inHg , 1016.3 hPa
Clouds: Clear
Visibility: 10 miles , 16 km
2021/01/18 01:35 KE16 180135Z AUTO 32003KT 10SM CLR 20/02 A3001 RMK AO2 PWINO PNO
KWVI - Watsonville, California, USA
Distance from station: SSE 27mi, 44km
Updated: Sun, 17-Jan-2021 5:53pm PST
Clear
Clear
 Wind from calm
Wind: Calm
Temperature: 64°F , 18°C
Dew Point: 45°F , 7°C
Humidity: 49%
Barometer: 30.00 inHg , 1015.9 hPa
Clouds: Clear
Visibility: 10 miles , 16 km
2021/01/18 01:53 KWVI 180153Z AUTO 00000KT 10SM CLR 18/07 A3000 RMK AO2 SLP157 T01830072
 
KHAF - Half Moon Bay, California, USA
Distance from station: WNW 31mi, 50km
Updated: Sun, 17-Jan-2021 5:55pm PST
Clear
Clear
 Wind from NNW
Wind: NNW 9 mph , 15 km/h
Temperature: 55°F , 13°C
Dew Point: 48°F , 9°C
Humidity: 77%
Barometer: 30.03 inHg , 1016.9 hPa
Clouds: Clear
Visibility: 7 miles , 11 km
2021/01/18 01:55 KHAF 180155Z AUTO 34008KT 7SM CLR 13/09 A3003 RMK AO2
KHWD - Hayward, California, USA
Distance from station: N 28mi, 44km
Updated: Sun, 17-Jan-2021 5:54pm PST
Clear
Clear
 Wind from calm
Wind: Calm
Temperature: 63°F , 17°C
Dew Point: 41°F , 5°C
Humidity: 45%
Barometer: 30.00 inHg , 1015.9 hPa
Clouds: Clear
Visibility: 10 miles , 16 km
2021/01/18 01:54 KHWD 180154Z 00000KT 10SM CLR 17/05 A3000 RMK AO2 SLP170 T01670050
 
KLVK - Livermore, California, USA
Distance from station: NNE 31mi, 51km
Updated: Sun, 17-Jan-2021 5:53pm PST
Clear
Clear
 Wind from ENE
Wind: ENE 3 mph , 6 km/h
Temperature: 64°F , 18°C
Dew Point: 36°F , 2°C
Humidity: 34%
Barometer: 30.01 inHg , 1016.3 hPa
Clouds: Clear
Visibility: 10 miles , 16 km
2021/01/18 01:53 KLVK 180153Z 07003KT 10SM CLR 18/02 A3001 RMK AO2 SLP161 T01780017